Capitol Logistics 261


KMCI
Kansas City International Airport
Kansas City, Missouri, US
KBOS
Logan International Airport
Boston, Massachusetts, US

Route Details

Aircraft Information
Primary: Boeing 767-300BDSF
Backup: Boeing 757-200SF
Route Data
Distance: 1090nm
Sched. Duration: 2h 39m
Avg. Duration: 2h 41m (+2m)
Times Flown: 4
Recm'd Route: LAKES2 SPI ROD KLYNE Q29 JHW Q82 PONCT JFUND2
Planned Altitude: 35,000ft
Origin Wx: KMCI 311253Z 02004KT 10SM BKN130 08/00 A3005 RMK AO2 SLP176 T00780000
Dest. Wx: KBOS 311254Z 36012G16KT 10SM BKN022 02/M02 A3010 RMK AO2 SLP191 T00171022 $
Notes: METROAIR CARGO SUPPORT

Financial History
Total Freight: 291,000lbs
Average Load: 72,750lbs/flt
Fuel Used: 111,582lbs
Avg. Fuel Used: 27,896lbs/flt
Fuel Expense: $122,740
Avg. Fuel Expense: $30,685
Avg. Fuel Cost: $1.10/lbs
Total Gross Income: $400,387
Pilot Pay: $886
Total Expenses: $43,450
Total Revenue: $231,242
Average Revenue: $100,096.80